Terminal Aerodrome Forecast
Issued by NWS

Home | Current Version | Previous Version | Text Only | Print | Product List | Glossary Off
Versions: 1 2 3 4 5 6 7 8 9 10 11 12 13 14 15 16 17 18 19 20 21 22 23

000
FTUS43 KBIS 231739
TAFJMS
TAF
KJMS 231739Z 2318/2418 04012KT P6SM SCT015 OVC035
      TEMPO 2318/2322 BKN025
     FM232300 03013KT P6SM BKN025
     FM240600 03013KT P6SM BKN035
     FM241500 36011KT P6SM BKN015=

USA.gov is the U.S. government's official web portal to all federal, state and local government web resources and services.